sensor_id;sensor_type;location;lat;lon;timestamp;temperature;humidity
44982;DHT22;30716;41.740;-70.400;2023-04-24T00:00:17;23.90;42.20
44982;DHT22;30716;41.740;-70.400;2023-04-24T00:02:44;24.00;42.10
44982;DHT22;30716;41.740;-70.400;2023-04-24T00:05:14;23.90;42.00
44982;DHT22;30716;41.740;-70.400;2023-04-24T00:07:44;24.00;42.20
44982;DHT22;30716;41.740;-70.400;2023-04-24T00:10:11;24.00;42.20
44982;DHT22;30716;41.740;-70.400;2023-04-24T00:12:38;24.00;42.00
44982;DHT22;30716;41.740;-70.400;2023-04-24T00:15:05;24.00;42.00
44982;DHT22;30716;41.740;-70.400;2023-04-24T00:17:31;24.00;42.10
44982;DHT22;30716;41.740;-70.400;2023-04-24T00:19:57;24.00;42.00
44982;DHT22;30716;41.740;-70.400;2023-04-24T00:22:28;24.00;42.00
44982;DHT22;30716;41.740;-70.400;2023-04-24T00:24:54;24.00;41.90
44982;DHT22;30716;41.740;-70.400;2023-04-24T00:27:21;24.00;41.90
44982;DHT22;30716;41.740;-70.400;2023-04-24T00:29:47;24.00;42.00
44982;DHT22;30716;41.740;-70.400;2023-04-24T00:32:13;24.00;41.90
44982;DHT22;30716;41.740;-70.400;2023-04-24T00:34:39;24.00;42.10
44982;DHT22;30716;41.740;-70.400;2023-04-24T00:37:06;24.00;41.90
44982;DHT22;30716;41.740;-70.400;2023-04-24T00:39:32;24.10;42.00
44982;DHT22;30716;41.740;-70.400;2023-04-24T00:41:58;24.00;42.00
44982;DHT22;30716;41.740;-70.400;2023-04-24T00:44:25;24.10;42.00
44982;DHT22;30716;41.740;-70.400;2023-04-24T00:46:51;24.10;42.00
44982;DHT22;30716;41.740;-70.400;2023-04-24T00:49:23;24.10;42.00
44982;DHT22;30716;41.740;-70.400;2023-04-24T00:51:49;24.10;41.80
44982;DHT22;30716;41.740;-70.400;2023-04-24T00:54:17;24.10;41.70
44982;DHT22;30716;41.740;-70.400;2023-04-24T00:56:44;24.10;41.80
44982;DHT22;30716;41.740;-70.400;2023-04-24T00:59:16;24.10;41.70
44982;DHT22;30716;41.740;-70.400;2023-04-24T01:01:44;24.10;41.70
44982;DHT22;30716;41.740;-70.400;2023-04-24T01:04:11;24.10;41.60
44982;DHT22;30716;41.740;-70.400;2023-04-24T01:06:39;24.10;41.60
44982;DHT22;30716;41.740;-70.400;2023-04-24T01:09:07;24.20;41.70
44982;DHT22;30716;41.740;-70.400;2023-04-24T01:11:37;24.10;41.70
44982;DHT22;30716;41.740;-70.400;2023-04-24T01:14:03;24.10;41.70
44982;DHT22;30716;41.740;-70.400;2023-04-24T01:16:29;24.10;41.70
44982;DHT22;30716;41.740;-70.400;2023-04-24T01:18:56;24.10;41.70
44982;DHT22;30716;41.740;-70.400;2023-04-24T01:21:23;24.10;41.70
44982;DHT22;30716;41.740;-70.400;2023-04-24T01:23:53;24.10;41.70
44982;DHT22;30716;41.740;-70.400;2023-04-24T01:26:19;24.10;41.70
44982;DHT22;30716;41.740;-70.400;2023-04-24T01:28:46;24.10;41.60
44982;DHT22;30716;41.740;-70.400;2023-04-24T01:31:14;24.10;41.70
44982;DHT22;30716;41.740;-70.400;2023-04-24T01:33:41;24.10;41.70
44982;DHT22;30716;41.740;-70.400;2023-04-24T01:36:10;24.10;41.80
44982;DHT22;30716;41.740;-70.400;2023-04-24T01:38:36;24.10;41.80
44982;DHT22;30716;41.740;-70.400;2023-04-24T01:41:02;24.10;41.80
44982;DHT22;30716;41.740;-70.400;2023-04-24T01:43:29;24.10;41.70
44982;DHT22;30716;41.740;-70.400;2023-04-24T01:45:55;24.20;41.80
44982;DHT22;30716;41.740;-70.400;2023-04-24T01:48:22;24.10;41.80
44982;DHT22;30716;41.740;-70.400;2023-04-24T01:50:48;24.10;41.70
44982;DHT22;30716;41.740;-70.400;2023-04-24T01:53:15;24.20;41.80
44982;DHT22;30716;41.740;-70.400;2023-04-24T01:55:41;24.10;41.70
44982;DHT22;30716;41.740;-70.400;2023-04-24T01:58:07;24.10;41.70
44982;DHT22;30716;41.740;-70.400;2023-04-24T02:00:34;24.10;41.70
44982;DHT22;30716;41.740;-70.400;2023-04-24T02:03:00;24.20;41.70
44982;DHT22;30716;41.740;-70.400;2023-04-24T02:05:27;24.20;41.70
44982;DHT22;30716;41.740;-70.400;2023-04-24T02:07:54;24.10;41.60
44982;DHT22;30716;41.740;-70.400;2023-04-24T02:10:20;24.10;41.70
44982;DHT22;30716;41.740;-70.400;2023-04-24T02:12:46;24.10;41.70
44982;DHT22;30716;41.740;-70.400;2023-04-24T02:15:13;24.10;41.70
44982;DHT22;30716;41.740;-70.400;2023-04-24T02:17:39;24.20;41.80
44982;DHT22;30716;41.740;-70.400;2023-04-24T02:20:07;24.10;41.70
44982;DHT22;30716;41.740;-70.400;2023-04-24T02:22:33;24.10;41.70
44982;DHT22;30716;41.740;-70.400;2023-04-24T02:24:59;24.10;41.70
44982;DHT22;30716;41.740;-70.400;2023-04-24T02:27:25;24.20;41.90
44982;DHT22;30716;41.740;-70.400;2023-04-24T02:29:52;24.10;41.80
44982;DHT22;30716;41.740;-70.400;2023-04-24T02:32:18;24.10;42.10
44982;DHT22;30716;41.740;-70.400;2023-04-24T02:34:44;24.10;41.90
44982;DHT22;30716;41.740;-70.400;2023-04-24T02:37:12;24.10;41.80
44982;DHT22;30716;41.740;-70.400;2023-04-24T02:39:38;24.10;41.90
44982;DHT22;30716;41.740;-70.400;2023-04-24T02:42:05;24.10;42.00
44982;DHT22;30716;41.740;-70.400;2023-04-24T02:44:36;24.10;41.90
44982;DHT22;30716;41.740;-70.400;2023-04-24T02:47:02;24.10;42.00
44982;DHT22;30716;41.740;-70.400;2023-04-24T02:49:32;24.10;42.10
44982;DHT22;30716;41.740;-70.400;2023-04-24T02:51:58;24.10;42.00
44982;DHT22;30716;41.740;-70.400;2023-04-24T02:54:24;24.10;42.10
44982;DHT22;30716;41.740;-70.400;2023-04-24T02:56:50;24.10;42.10
44982;DHT22;30716;41.740;-70.400;2023-04-24T02:59:17;24.10;42.10
44982;DHT22;30716;41.740;-70.400;2023-04-24T03:01:43;24.10;42.20
44982;DHT22;30716;41.740;-70.400;2023-04-24T03:04:09;24.10;42.10
44982;DHT22;30716;41.740;-70.400;2023-04-24T03:06:35;24.10;42.10
44982;DHT22;30716;41.740;-70.400;2023-04-24T03:09:02;24.10;42.20
44982;DHT22;30716;41.740;-70.400;2023-04-24T03:11:29;24.10;42.30
44982;DHT22;30716;41.740;-70.400;2023-04-24T03:13:55;24.10;42.30
44982;DHT22;30716;41.740;-70.400;2023-04-24T03:16:21;24.10;42.10
44982;DHT22;30716;41.740;-70.400;2023-04-24T03:18:47;24.10;42.10
44982;DHT22;30716;41.740;-70.400;2023-04-24T03:21:13;24.10;42.30
44982;DHT22;30716;41.740;-70.400;2023-04-24T03:23:39;24.10;42.20
44982;DHT22;30716;41.740;-70.400;2023-04-24T03:26:06;24.10;42.20
44982;DHT22;30716;41.740;-70.400;2023-04-24T03:28:32;24.10;42.00
44982;DHT22;30716;41.740;-70.400;2023-04-24T03:30:58;24.10;42.10
44982;DHT22;30716;41.740;-70.400;2023-04-24T03:33:24;24.10;42.00
44982;DHT22;30716;41.740;-70.400;2023-04-24T03:35:50;24.10;42.70
44982;DHT22;30716;41.740;-70.400;2023-04-24T03:38:16;24.10;42.80
44982;DHT22;30716;41.740;-70.400;2023-04-24T03:40:42;24.10;42.10
44982;DHT22;30716;41.740;-70.400;2023-04-24T03:43:08;24.10;42.10
44982;DHT22;30716;41.740;-70.400;2023-04-24T03:45:35;24.10;42.10
44982;DHT22;30716;41.740;-70.400;2023-04-24T03:48:01;24.10;42.10
44982;DHT22;30716;41.740;-70.400;2023-04-24T03:50:27;24.10;42.20
44982;DHT22;30716;41.740;-70.400;2023-04-24T03:52:54;24.10;42.20
44982;DHT22;30716;41.740;-70.400;2023-04-24T03:55:21;24.10;42.30
44982;DHT22;30716;41.740;-70.400;2023-04-24T03:57:47;24.10;42.20
44982;DHT22;30716;41.740;-70.400;2023-04-24T04:00:13;24.10;42.20
44982;DHT22;30716;41.740;-70.400;2023-04-24T04:02:40;24.00;42.20
44982;DHT22;30716;41.740;-70.400;2023-04-24T04:05:06;24.00;42.10
44982;DHT22;30716;41.740;-70.400;2023-04-24T04:07:33;24.00;42.20
44982;DHT22;30716;41.740;-70.400;2023-04-24T04:09:59;24.00;42.20
44982;DHT22;30716;41.740;-70.400;2023-04-24T04:12:26;24.00;42.10
44982;DHT22;30716;41.740;-70.400;2023-04-24T04:14:52;24.10;42.30
44982;DHT22;30716;41.740;-70.400;2023-04-24T04:17:18;24.10;42.40
44982;DHT22;30716;41.740;-70.400;2023-04-24T04:19:44;24.00;42.20
44982;DHT22;30716;41.740;-70.400;2023-04-24T04:22:10;24.00;42.20
44982;DHT22;30716;41.740;-70.400;2023-04-24T04:24:37;24.10;42.20
44982;DHT22;30716;41.740;-70.400;2023-04-24T04:27:04;24.10;42.20
44982;DHT22;30716;41.740;-70.400;2023-04-24T04:29:31;24.00;42.20
44982;DHT22;30716;41.740;-70.400;2023-04-24T04:31:58;24.10;42.20
44982;DHT22;30716;41.740;-70.400;2023-04-24T04:34:24;24.00;42.00
44982;DHT22;30716;41.740;-70.400;2023-04-24T04:36:50;24.10;42.20
44982;DHT22;30716;41.740;-70.400;2023-04-24T04:39:17;24.00;42.10
44982;DHT22;30716;41.740;-70.400;2023-04-24T04:41:44;24.00;42.30
44982;DHT22;30716;41.740;-70.400;2023-04-24T04:44:12;24.00;42.30
44982;DHT22;30716;41.740;-70.400;2023-04-24T04:46:39;24.00;42.40
44982;DHT22;30716;41.740;-70.400;2023-04-24T04:49:07;24.00;42.30
44982;DHT22;30716;41.740;-70.400;2023-04-24T04:51:34;24.00;42.20
44982;DHT22;30716;41.740;-70.400;2023-04-24T04:54:00;24.00;42.30
44982;DHT22;30716;41.740;-70.400;2023-04-24T04:56:26;24.00;42.20
44982;DHT22;30716;41.740;-70.400;2023-04-24T04:58:53;24.00;42.30
44982;DHT22;30716;41.740;-70.400;2023-04-24T05:01:19;24.00;42.40
44982;DHT22;30716;41.740;-70.400;2023-04-24T05:03:45;24.00;42.30
44982;DHT22;30716;41.740;-70.400;2023-04-24T05:06:11;24.00;42.40
44982;DHT22;30716;41.740;-70.400;2023-04-24T05:08:39;24.00;42.40
44982;DHT22;30716;41.740;-70.400;2023-04-24T05:11:06;24.00;42.30
44982;DHT22;30716;41.740;-70.400;2023-04-24T05:13:32;24.00;42.50
44982;DHT22;30716;41.740;-70.400;2023-04-24T05:15:58;24.00;42.40
44982;DHT22;30716;41.740;-70.400;2023-04-24T05:18:24;24.00;42.30
44982;DHT22;30716;41.740;-70.400;2023-04-24T05:20:50;24.00;42.50
44982;DHT22;30716;41.740;-70.400;2023-04-24T05:23:17;24.00;42.50
44982;DHT22;30716;41.740;-70.400;2023-04-24T05:25:43;24.00;42.40
44982;DHT22;30716;41.740;-70.400;2023-04-24T05:28:09;24.00;42.50
44982;DHT22;30716;41.740;-70.400;2023-04-24T05:30:35;24.00;42.50
44982;DHT22;30716;41.740;-70.400;2023-04-24T05:33:02;24.00;42.50
44982;DHT22;30716;41.740;-70.400;2023-04-24T05:35:28;23.90;42.60
44982;DHT22;30716;41.740;-70.400;2023-04-24T05:37:54;24.00;42.70
44982;DHT22;30716;41.740;-70.400;2023-04-24T05:40:20;24.00;42.50
44982;DHT22;30716;41.740;-70.400;2023-04-24T05:42:47;24.00;42.50
44982;DHT22;30716;41.740;-70.400;2023-04-24T05:45:13;24.00;42.40
44982;DHT22;30716;41.740;-70.400;2023-04-24T05:47:43;24.00;42.60
44982;DHT22;30716;41.740;-70.400;2023-04-24T05:50:10;23.90;42.50
44982;DHT22;30716;41.740;-70.400;2023-04-24T05:52:37;24.00;42.50
44982;DHT22;30716;41.740;-70.400;2023-04-24T05:55:03;24.00;42.40
44982;DHT22;30716;41.740;-70.400;2023-04-24T05:57:29;24.10;42.40
44982;DHT22;30716;41.740;-70.400;2023-04-24T05:59:56;24.00;42.40
44982;DHT22;30716;41.740;-70.400;2023-04-24T06:02:22;24.00;42.50
44982;DHT22;30716;41.740;-70.400;2023-04-24T06:04:48;24.10;42.50
44982;DHT22;30716;41.740;-70.400;2023-04-24T06:07:14;24.10;42.50
44982;DHT22;30716;41.740;-70.400;2023-04-24T06:09:41;24.10;42.50
44982;DHT22;30716;41.740;-70.400;2023-04-24T06:12:07;24.00;42.30
44982;DHT22;30716;41.740;-70.400;2023-04-24T06:14:34;24.10;42.50
44982;DHT22;30716;41.740;-70.400;2023-04-24T06:17:00;24.00;42.40
44982;DHT22;30716;41.740;-70.400;2023-04-24T06:19:26;24.10;42.60
44982;DHT22;30716;41.740;-70.400;2023-04-24T06:21:52;24.00;42.60
44982;DHT22;30716;41.740;-70.400;2023-04-24T06:24:19;24.10;42.70
44982;DHT22;30716;41.740;-70.400;2023-04-24T06:26:45;24.00;42.60
44982;DHT22;30716;41.740;-70.400;2023-04-24T06:29:11;24.00;42.60
44982;DHT22;30716;41.740;-70.400;2023-04-24T06:31:37;24.00;42.70
44982;DHT22;30716;41.740;-70.400;2023-04-24T06:34:04;24.00;42.60
44982;DHT22;30716;41.740;-70.400;2023-04-24T06:36:30;24.00;42.70
44982;DHT22;30716;41.740;-70.400;2023-04-24T06:38:56;24.00;42.50
44982;DHT22;30716;41.740;-70.400;2023-04-24T06:41:23;24.00;42.60
44982;DHT22;30716;41.740;-70.400;2023-04-24T06:43:49;24.00;42.60
44982;DHT22;30716;41.740;-70.400;2023-04-24T06:46:15;24.00;42.60
44982;DHT22;30716;41.740;-70.400;2023-04-24T06:48:41;24.00;42.60
44982;DHT22;30716;41.740;-70.400;2023-04-24T06:57:42;24.00;42.60
44982;DHT22;30716;41.740;-70.400;2023-04-24T07:00:10;24.00;42.60
44982;DHT22;30716;41.740;-70.400;2023-04-24T07:02:36;23.90;42.50
44982;DHT22;30716;41.740;-70.400;2023-04-24T07:05:04;24.00;42.60
44982;DHT22;30716;41.740;-70.400;2023-04-24T07:07:30;23.90;42.60
44982;DHT22;30716;41.740;-70.400;2023-04-24T07:09:57;24.00;42.70
44982;DHT22;30716;41.740;-70.400;2023-04-24T07:12:23;23.90;42.60
44982;DHT22;30716;41.740;-70.400;2023-04-24T07:14:50;24.00;42.60
44982;DHT22;30716;41.740;-70.400;2023-04-24T07:17:16;24.00;42.60
44982;DHT22;30716;41.740;-70.400;2023-04-24T07:19:42;24.00;42.60
44982;DHT22;30716;41.740;-70.400;2023-04-24T07:22:09;24.00;42.50
44982;DHT22;30716;41.740;-70.400;2023-04-24T07:24:37;24.00;42.40
44982;DHT22;30716;41.740;-70.400;2023-04-24T07:27:03;24.00;42.40
44982;DHT22;30716;41.740;-70.400;2023-04-24T07:29:30;24.10;42.30
44982;DHT22;30716;41.740;-70.400;2023-04-24T07:31:56;24.10;42.50
44982;DHT22;30716;41.740;-70.400;2023-04-24T07:34:22;24.10;42.40
44982;DHT22;30716;41.740;-70.400;2023-04-24T07:36:48;24.10;42.20
44982;DHT22;30716;41.740;-70.400;2023-04-24T07:39:14;24.10;42.40
44982;DHT22;30716;41.740;-70.400;2023-04-24T07:41:40;24.10;42.20
44982;DHT22;30716;41.740;-70.400;2023-04-24T07:44:07;24.10;42.20
44982;DHT22;30716;41.740;-70.400;2023-04-24T07:46:33;24.10;42.40
44982;DHT22;30716;41.740;-70.400;2023-04-24T07:48:59;24.10;42.30
44982;DHT22;30716;41.740;-70.400;2023-04-24T07:51:27;24.10;42.40
44982;DHT22;30716;41.740;-70.400;2023-04-24T07:53:57;24.10;42.40
44982;DHT22;30716;41.740;-70.400;2023-04-24T07:56:23;24.10;42.40
44982;DHT22;30716;41.740;-70.400;2023-04-24T07:58:49;24.10;42.40
44982;DHT22;30716;41.740;-70.400;2023-04-24T08:01:15;24.10;42.30
44982;DHT22;30716;41.740;-70.400;2023-04-24T08:03:41;24.10;42.20
44982;DHT22;30716;41.740;-70.400;2023-04-24T08:06:07;24.10;42.20
44982;DHT22;30716;41.740;-70.400;2023-04-24T08:08:34;24.20;42.20
44982;DHT22;30716;41.740;-70.400;2023-04-24T08:11:00;24.10;42.10
44982;DHT22;30716;41.740;-70.400;2023-04-24T08:13:27;24.20;42.20
44982;DHT22;30716;41.740;-70.400;2023-04-24T08:15:53;24.20;42.20
44982;DHT22;30716;41.740;-70.400;2023-04-24T08:18:19;24.20;42.20
44982;DHT22;30716;41.740;-70.400;2023-04-24T08:20:45;24.20;42.20
44982;DHT22;30716;41.740;-70.400;2023-04-24T08:23:11;24.20;42.10
44982;DHT22;30716;41.740;-70.400;2023-04-24T08:25:38;24.20;42.00
44982;DHT22;30716;41.740;-70.400;2023-04-24T08:28:06;24.20;42.00
44982;DHT22;30716;41.740;-70.400;2023-04-24T08:30:32;24.20;42.10
44982;DHT22;30716;41.740;-70.400;2023-04-24T08:32:58;24.20;42.00
44982;DHT22;30716;41.740;-70.400;2023-04-24T08:35:25;24.20;42.10
44982;DHT22;30716;41.740;-70.400;2023-04-24T08:37:52;24.20;42.10
44982;DHT22;30716;41.740;-70.400;2023-04-24T08:40:27;24.20;42.00
44982;DHT22;30716;41.740;-70.400;2023-04-24T08:42:56;24.20;42.00
44982;DHT22;30716;41.740;-70.400;2023-04-24T08:45:23;24.20;42.10
44982;DHT22;30716;41.740;-70.400;2023-04-24T08:47:50;24.20;42.00
44982;DHT22;30716;41.740;-70.400;2023-04-24T08:50:19;24.30;42.10
44982;DHT22;30716;41.740;-70.400;2023-04-24T08:52:45;24.30;42.10
44982;DHT22;30716;41.740;-70.400;2023-04-24T08:55:12;24.30;42.00
44982;DHT22;30716;41.740;-70.400;2023-04-24T08:57:40;24.30;42.20
44982;DHT22;30716;41.740;-70.400;2023-04-24T09:00:07;24.30;42.10
44982;DHT22;30716;41.740;-70.400;2023-04-24T09:02:34;24.30;42.10
44982;DHT22;30716;41.740;-70.400;2023-04-24T09:05:00;24.30;42.20
44982;DHT22;30716;41.740;-70.400;2023-04-24T09:07:30;24.30;42.10
44982;DHT22;30716;41.740;-70.400;2023-04-24T09:09:58;24.30;42.10
44982;DHT22;30716;41.740;-70.400;2023-04-24T09:12:25;24.30;42.00
44982;DHT22;30716;41.740;-70.400;2023-04-24T09:14:51;24.30;42.20
44982;DHT22;30716;41.740;-70.400;2023-04-24T09:17:18;24.30;42.00
44982;DHT22;30716;41.740;-70.400;2023-04-24T09:19:44;24.20;42.00
44982;DHT22;30716;41.740;-70.400;2023-04-24T09:22:11;24.30;42.00
44982;DHT22;30716;41.740;-70.400;2023-04-24T09:24:38;24.30;42.00
44982;DHT22;30716;41.740;-70.400;2023-04-24T09:27:04;24.30;42.00
44982;DHT22;30716;41.740;-70.400;2023-04-24T09:29:31;24.30;42.00
44982;DHT22;30716;41.740;-70.400;2023-04-24T09:31:59;24.20;42.00
44982;DHT22;30716;41.740;-70.400;2023-04-24T09:34:26;24.20;42.00
44982;DHT22;30716;41.740;-70.400;2023-04-24T09:36:53;24.20;42.00
44982;DHT22;30716;41.740;-70.400;2023-04-24T09:39:20;24.20;42.10
44982;DHT22;30716;41.740;-70.400;2023-04-24T09:41:55;24.20;42.20
44982;DHT22;30716;41.740;-70.400;2023-04-24T09:44:27;24.20;42.20
44982;DHT22;30716;41.740;-70.400;2023-04-24T09:46:55;24.20;42.30
44982;DHT22;30716;41.740;-70.400;2023-04-24T09:49:26;24.20;42.20
44982;DHT22;30716;41.740;-70.400;2023-04-24T09:52:03;24.20;42.30
44982;DHT22;30716;41.740;-70.400;2023-04-24T09:54:30;24.20;42.20
44982;DHT22;30716;41.740;-70.400;2023-04-24T09:56:56;24.20;42.20
44982;DHT22;30716;41.740;-70.400;2023-04-24T09:59:22;24.20;42.20
44982;DHT22;30716;41.740;-70.400;2023-04-24T10:01:49;24.20;42.20
44982;DHT22;30716;41.740;-70.400;2023-04-24T10:06:47;24.20;42.20
44982;DHT22;30716;41.740;-70.400;2023-04-24T10:09:15;24.20;42.20
44982;DHT22;30716;41.740;-70.400;2023-04-24T10:11:43;24.20;42.20
44982;DHT22;30716;41.740;-70.400;2023-04-24T10:14:18;24.20;42.20
44982;DHT22;30716;41.740;-70.400;2023-04-24T10:16:46;24.20;42.20
44982;DHT22;30716;41.740;-70.400;2023-04-24T10:19:14;24.20;42.10
44982;DHT22;30716;41.740;-70.400;2023-04-24T10:21:42;24.20;42.20
44982;DHT22;30716;41.740;-70.400;2023-04-24T10:24:13;24.20;42.20
44982;DHT22;30716;41.740;-70.400;2023-04-24T10:26:41;24.20;42.20
44982;DHT22;30716;41.740;-70.400;2023-04-24T10:29:08;24.20;42.20
44982;DHT22;30716;41.740;-70.400;2023-04-24T10:31:38;24.20;42.30
44982;DHT22;30716;41.740;-70.400;2023-04-24T10:34:05;24.20;42.20
44982;DHT22;30716;41.740;-70.400;2023-04-24T10:36:36;24.20;42.60
44982;DHT22;30716;41.740;-70.400;2023-04-24T10:39:09;24.10;43.00
44982;DHT22;30716;41.740;-70.400;2023-04-24T10:41:38;24.10;42.20
44982;DHT22;30716;41.740;-70.400;2023-04-24T10:44:16;24.10;42.20
44982;DHT22;30716;41.740;-70.400;2023-04-24T10:46:44;24.10;42.20
44982;DHT22;30716;41.740;-70.400;2023-04-24T10:49:11;24.20;42.20
44982;DHT22;30716;41.740;-70.400;2023-04-24T10:51:51;24.10;42.10
44982;DHT22;30716;41.740;-70.400;2023-04-24T10:54:45;24.10;42.10
44982;DHT22;30716;41.740;-70.400;2023-04-24T11:02:38;24.10;42.20
44982;DHT22;30716;41.740;-70.400;2023-04-24T11:05:06;24.10;42.30
44982;DHT22;30716;41.740;-70.400;2023-04-24T11:08:12;24.10;42.30
44982;DHT22;30716;41.740;-70.400;2023-04-24T11:10:40;24.10;42.40
44982;DHT22;30716;41.740;-70.400;2023-04-24T11:13:06;24.10;42.40
44982;DHT22;30716;41.740;-70.400;2023-04-24T11:15:33;24.00;42.40
44982;DHT22;30716;41.740;-70.400;2023-04-24T11:17:59;24.10;42.40
44982;DHT22;30716;41.740;-70.400;2023-04-24T11:20:25;24.10;42.40
44982;DHT22;30716;41.740;-70.400;2023-04-24T11:22:54;24.10;42.40
44982;DHT22;30716;41.740;-70.400;2023-04-24T11:25:21;24.10;42.30
44982;DHT22;30716;41.740;-70.400;2023-04-24T11:27:49;24.10;42.30
44982;DHT22;30716;41.740;-70.400;2023-04-24T11:30:20;24.10;42.30
44982;DHT22;30716;41.740;-70.400;2023-04-24T11:32:51;24.00;42.30
44982;DHT22;30716;41.740;-70.400;2023-04-24T11:35:19;24.10;42.30
44982;DHT22;30716;41.740;-70.400;2023-04-24T11:37:49;24.10;42.50
44982;DHT22;30716;41.740;-70.400;2023-04-24T11:40:17;24.00;42.40
44982;DHT22;30716;41.740;-70.400;2023-04-24T11:42:46;24.10;42.40
44982;DHT22;30716;41.740;-70.400;2023-04-24T11:45:16;24.10;42.30
44982;DHT22;30716;41.740;-70.400;2023-04-24T11:47:43;24.10;42.40
44982;DHT22;30716;41.740;-70.400;2023-04-24T11:50:15;24.10;42.40
44982;DHT22;30716;41.740;-70.400;2023-04-24T11:52:43;24.00;42.40
44982;DHT22;30716;41.740;-70.400;2023-04-24T11:55:30;24.00;42.30
44982;DHT22;30716;41.740;-70.400;2023-04-24T11:57:58;24.00;42.40
44982;DHT22;30716;41.740;-70.400;2023-04-24T12:00:29;24.00;42.50
44982;DHT22;30716;41.740;-70.400;2023-04-24T12:03:10;24.00;42.40
44982;DHT22;30716;41.740;-70.400;2023-04-24T12:05:37;24.00;42.50
44982;DHT22;30716;41.740;-70.400;2023-04-24T12:08:03;24.00;42.50
44982;DHT22;30716;41.740;-70.400;2023-04-24T12:10:31;23.90;42.40
44982;DHT22;30716;41.740;-70.400;2023-04-24T12:12:59;24.00;42.40
44982;DHT22;30716;41.740;-70.400;2023-04-24T12:15:26;24.00;42.40
44982;DHT22;30716;41.740;-70.400;2023-04-24T12:17:54;23.90;42.40
44982;DHT22;30716;41.740;-70.400;2023-04-24T12:20:32;24.00;42.50
44982;DHT22;30716;41.740;-70.400;2023-04-24T12:22:59;24.00;42.50
44982;DHT22;30716;41.740;-70.400;2023-04-24T12:25:27;24.00;42.50
44982;DHT22;30716;41.740;-70.400;2023-04-24T12:28:16;24.00;42.40
44982;DHT22;30716;41.740;-70.400;2023-04-24T12:30:43;24.00;42.50
44982;DHT22;30716;41.740;-70.400;2023-04-24T12:33:18;24.00;42.30
44982;DHT22;30716;41.740;-70.400;2023-04-24T12:35:45;24.00;42.30
44982;DHT22;30716;41.740;-70.400;2023-04-24T12:38:13;24.00;42.40
44982;DHT22;30716;41.740;-70.400;2023-04-24T12:40:40;24.00;42.30
44982;DHT22;30716;41.740;-70.400;2023-04-24T12:43:27;24.10;42.40
44982;DHT22;30716;41.740;-70.400;2023-04-24T12:45:53;24.10;42.40
44982;DHT22;30716;41.740;-70.400;2023-04-24T12:48:19;24.00;43.00
44982;DHT22;30716;41.740;-70.400;2023-04-24T12:50:46;24.00;42.30
44982;DHT22;30716;41.740;-70.400;2023-04-24T12:53:13;24.10;42.30
44982;DHT22;30716;41.740;-70.400;2023-04-24T12:55:44;24.10;42.30
44982;DHT22;30716;41.740;-70.400;2023-04-24T12:58:10;24.10;42.40
44982;DHT22;30716;41.740;-70.400;2023-04-24T13:00:37;24.10;42.40
44982;DHT22;30716;41.740;-70.400;2023-04-24T13:03:04;24.00;42.30
44982;DHT22;30716;41.740;-70.400;2023-04-24T13:05:30;24.00;42.40
44982;DHT22;30716;41.740;-70.400;2023-04-24T13:07:57;24.00;42.30
44982;DHT22;30716;41.740;-70.400;2023-04-24T13:10:23;24.10;42.40
44982;DHT22;30716;41.740;-70.400;2023-04-24T13:12:49;24.00;42.30
44982;DHT22;30716;41.740;-70.400;2023-04-24T13:15:16;24.10;42.50
44982;DHT22;30716;41.740;-70.400;2023-04-24T13:17:42;24.10;42.50
44982;DHT22;30716;41.740;-70.400;2023-04-24T13:20:08;24.00;42.40
44982;DHT22;30716;41.740;-70.400;2023-04-24T13:22:35;24.00;42.50
44982;DHT22;30716;41.740;-70.400;2023-04-24T13:25:01;24.00;42.40
44982;DHT22;30716;41.740;-70.400;2023-04-24T13:27:27;24.10;42.50
44982;DHT22;30716;41.740;-70.400;2023-04-24T13:29:54;24.00;42.40
44982;DHT22;30716;41.740;-70.400;2023-04-24T13:32:20;24.10;42.50
44982;DHT22;30716;41.740;-70.400;2023-04-24T13:34:46;24.00;42.30
44982;DHT22;30716;41.740;-70.400;2023-04-24T13:37:12;24.00;42.40
44982;DHT22;30716;41.740;-70.400;2023-04-24T13:39:38;24.00;42.40
44982;DHT22;30716;41.740;-70.400;2023-04-24T13:42:05;24.00;42.30
44982;DHT22;30716;41.740;-70.400;2023-04-24T13:44:31;24.00;42.40
44982;DHT22;30716;41.740;-70.400;2023-04-24T13:46:58;24.00;42.30
44982;DHT22;30716;41.740;-70.400;2023-04-24T13:49:25;24.00;42.20
44982;DHT22;30716;41.740;-70.400;2023-04-24T13:51:52;24.00;42.20
44982;DHT22;30716;41.740;-70.400;2023-04-24T13:54:19;24.10;42.30
44982;DHT22;30716;41.740;-70.400;2023-04-24T13:56:45;24.10;42.30
44982;DHT22;30716;41.740;-70.400;2023-04-24T13:59:12;24.10;42.30
44982;DHT22;30716;41.740;-70.400;2023-04-24T14:01:39;24.10;42.20
44982;DHT22;30716;41.740;-70.400;2023-04-24T14:04:05;24.10;42.20
44982;DHT22;30716;41.740;-70.400;2023-04-24T14:06:31;24.10;42.30
44982;DHT22;30716;41.740;-70.400;2023-04-24T14:08:57;24.10;42.30
44982;DHT22;30716;41.740;-70.400;2023-04-24T14:11:24;24.00;42.30
44982;DHT22;30716;41.740;-70.400;2023-04-24T14:13:50;24.00;42.40
44982;DHT22;30716;41.740;-70.400;2023-04-24T14:16:16;24.10;42.40
44982;DHT22;30716;41.740;-70.400;2023-04-24T14:18:42;24.00;42.30
44982;DHT22;30716;41.740;-70.400;2023-04-24T14:21:08;24.00;42.40
44982;DHT22;30716;41.740;-70.400;2023-04-24T14:23:35;24.00;42.50
44982;DHT22;30716;41.740;-70.400;2023-04-24T14:26:01;24.00;42.50
44982;DHT22;30716;41.740;-70.400;2023-04-24T14:28:27;24.00;42.40
44982;DHT22;30716;41.740;-70.400;2023-04-24T14:30:53;24.00;42.40
44982;DHT22;30716;41.740;-70.400;2023-04-24T14:33:20;24.00;43.20
44982;DHT22;30716;41.740;-70.400;2023-04-24T14:35:46;24.00;42.30
44982;DHT22;30716;41.740;-70.400;2023-04-24T14:38:14;24.00;42.40
44982;DHT22;30716;41.740;-70.400;2023-04-24T14:40:41;24.10;42.50
44982;DHT22;30716;41.740;-70.400;2023-04-24T14:43:07;24.00;42.30
44982;DHT22;30716;41.740;-70.400;2023-04-24T14:45:33;24.00;42.40
44982;DHT22;30716;41.740;-70.400;2023-04-24T14:47:59;24.00;42.40
44982;DHT22;30716;41.740;-70.400;2023-04-24T14:50:25;24.00;42.30
44982;DHT22;30716;41.740;-70.400;2023-04-24T14:52:54;24.00;42.40
44982;DHT22;30716;41.740;-70.400;2023-04-24T14:55:24;24.00;42.30
44982;DHT22;30716;41.740;-70.400;2023-04-24T14:57:52;24.00;42.30
44982;DHT22;30716;41.740;-70.400;2023-04-24T15:00:18;24.00;42.30
44982;DHT22;30716;41.740;-70.400;2023-04-24T15:02:45;24.00;42.30
44982;DHT22;30716;41.740;-70.400;2023-04-24T15:05:12;24.00;42.30
44982;DHT22;30716;41.740;-70.400;2023-04-24T15:07:38;24.00;42.30
44982;DHT22;30716;41.740;-70.400;2023-04-24T15:10:07;24.00;42.30
44982;DHT22;30716;41.740;-70.400;2023-04-24T15:12:33;24.00;42.50
44982;DHT22;30716;41.740;-70.400;2023-04-24T15:15:00;24.00;42.50
44982;DHT22;30716;41.740;-70.400;2023-04-24T15:17:26;24.00;42.30